Home > Products > Valid Products > TAF

000
FTUS42 KMFL 310927 AAA
TAFAPF
TAF AMD
KAPF 310927Z 3109/0106 VRB03KT P6SM VCSH FEW030 SCT120 BKN250
     FM311200 24005KT P6SM VCSH SCT030 SCT080 BKN250
     FM311600 26008KT P6SM VCTS SCT025CB BKN100 BKN250=



000
FTUS42 KMFL 310927 AAA
TAFAPF
TAF AMD
KAPF 310927Z 3109/0106 VRB03KT P6SM VCSH FEW030 SCT120 BKN250
     FM311200 24005KT P6SM VCSH SCT030 SCT080 BKN250
     FM311600 26008KT P6SM VCTS SCT025CB BKN100 BKN250=



000
FTUS42 KMFL 310924 AAA
TAFMIA
TAF AMD
KMIA 310924Z 3109/0106 VRB04KT P6SM VCSH FEW025 SCT140 BKN250
     FM311400 17007KT P6SM VCSH SCT030 SCT050 BKN250
     FM311700 16009KT P6SM VCTS SCT030CB BKN050 BKN250
     FM010000 15005KT P6SM SCT030 BKN100 BKN250=



000
FTUS42 KMFL 310924 AAA
TAFMIA
TAF AMD
KMIA 310924Z 3109/0106 VRB04KT P6SM VCSH FEW025 SCT140 BKN250
     FM311400 17007KT P6SM VCSH SCT030 SCT050 BKN250
     FM311700 16009KT P6SM VCTS SCT030CB BKN050 BKN250
     FM010000 15005KT P6SM SCT030 BKN100 BKN250=



000
FTUS42 KMFL 310922 AAA
TAFFLL
TAF AMD
KFLL 310922Z 3109/0106 VRB03KT P6SM VCSH FEW040 SCT060 BKN250
     FM311400 15008KT P6SM VCSH SCT030 SCT060 BKN250
     FM311700 15010KT P6SM VCTS SCT030CB BKN050 BKN250
     FM010000 16007KT P6SM SCT030 BKN100 BKN250=



000
FTUS42 KMFL 310921 AAA
TAFPBI
TAF AMD
KPBI 310921Z 3109/0106 VRB03KT P6SM VCSH FEW025 SCT130 BKN250
     FM311400 17008KT P6SM VCSH SCT030 SCT060 BKN250
     FM311700 15010KT P6SM VCTS SCT030CB BKN050 BKN250
     FM010000 17007KT P6SM SCT030 BKN100 BKN250=



000
FTUS42 KMFL 310921 AAA
TAFPBI
TAF AMD
KPBI 310921Z 3109/0106 VRB03KT P6SM VCSH FEW025 SCT130 BKN250
     FM311400 17008KT P6SM VCSH SCT030 SCT060 BKN250
     FM311700 15010KT P6SM VCTS SCT030CB BKN050 BKN250
     FM010000 17007KT P6SM SCT030 BKN100 BKN250=



000
FTUS42 KMFL 310534
TAFPBI
TAF
KPBI 310534Z 3106/0106 VRB03KT P6SM FEW040 SCT150 BKN250
     FM311400 15008KT P6SM VCSH SCT030 SCT060 BKN250
     FM311700 15010KT P6SM VCTS SCT030CB BKN050 BKN250
     FM010000 17007KT P6SM SCT030 BKN100 BKN250=



000
FTUS42 KMFL 310534
TAFMIA
TAF
KMIA 310534Z 3106/0106 VRB03KT P6SM VCSH SCT025 SCT080 BKN250
     FM311400 17007KT P6SM VCSH SCT030 SCT050 BKN250
     FM311700 16009KT P6SM VCTS SCT030CB BKN050 BKN250
     FM010000 15005KT P6SM SCT030 BKN100 BKN250=



000
FTUS42 KMFL 310534
TAFAPF
TAF
KAPF 310534Z 3106/0106 VRB05KT P6SM VCSH SCT027 BKN040 BKN110
     FM311200 24005KT P6SM VCSH SCT030 SCT080 BKN250
     FM311600 26008KT P6SM VCTS SCT025CB BKN100 BKN250=



000
FTUS42 KMFL 310534
TAFFLL
TAF
KFLL 310534Z 3106/0106 VRB02KT P6SM VCSH FEW027 SCT060 BKN250
     FM311400 15008KT P6SM VCSH SCT030 SCT060 BKN250
     FM311700 15010KT P6SM VCTS SCT030CB BKN050 BKN250
     FM010000 16007KT P6SM SCT030 BKN100 BKN250=



000
FTUS42 KMFL 310534
TAFMIA
TAF
KMIA 310534Z 3106/0106 VRB03KT P6SM VCSH SCT025 SCT080 BKN250
     FM311400 17007KT P6SM VCSH SCT030 SCT050 BKN250
     FM311700 16009KT P6SM VCTS SCT030CB BKN050 BKN250
     FM010000 15005KT P6SM SCT030 BKN100 BKN250=



000
FTUS42 KMFL 310534
TAFFLL
TAF
KFLL 310534Z 3106/0106 VRB02KT P6SM VCSH FEW027 SCT060 BKN250
     FM311400 15008KT P6SM VCSH SCT030 SCT060 BKN250
     FM311700 15010KT P6SM VCTS SCT030CB BKN050 BKN250
     FM010000 16007KT P6SM SCT030 BKN100 BKN250=



000
FTUS42 KMFL 310534
TAFPBI
TAF
KPBI 310534Z 3106/0106 VRB03KT P6SM FEW040 SCT150 BKN250
     FM311400 15008KT P6SM VCSH SCT030 SCT060 BKN250
     FM311700 15010KT P6SM VCTS SCT030CB BKN050 BKN250
     FM010000 17007KT P6SM SCT030 BKN100 BKN250=



000
FTUS42 KMFL 310534
TAFAPF
TAF
KAPF 310534Z 3106/0106 VRB05KT P6SM VCSH SCT027 BKN040 BKN110
     FM311200 24005KT P6SM VCSH SCT030 SCT080 BKN250
     FM311600 26008KT P6SM VCTS SCT025CB BKN100 BKN250=



000
FTUS42 KMFL 310359 AAB
TAFAPF
TAF AMD
KAPF 310359Z 3104/3124 VRB05KT P6SM VCTS SCT027CB BKN040 BKN060
      TEMPO 3104/3106 VRB10G25KT 3SM TSRA SCT020CB BKN030 BKN050
     FM310600 26005KT P6SM VCSH SCT025 BKN100 BKN250
     FM311300 22006KT P6SM SCT030
     FM311700 26008KT P6SM VCTS SCT035CB BKN120=



000
FTUS42 KMFL 310359 AAB
TAFAPF
TAF AMD
KAPF 310359Z 3104/3124 VRB05KT P6SM VCTS SCT027CB BKN040 BKN060
      TEMPO 3104/3106 VRB10G25KT 3SM TSRA SCT020CB BKN030 BKN050
     FM310600 26005KT P6SM VCSH SCT025 BKN100 BKN250
     FM311300 22006KT P6SM SCT030
     FM311700 26008KT P6SM VCTS SCT035CB BKN120=



000
FTUS42 KMFL 310359 AAB
TAFAPF
TAF AMD
KAPF 310359Z 3104/3124 VRB05KT P6SM VCTS SCT027CB BKN040 BKN060
      TEMPO 3104/3106 VRB10G25KT 3SM TSRA SCT020CB BKN030 BKN050
     FM310600 26005KT P6SM VCSH SCT025 BKN100 BKN250
     FM311300 22006KT P6SM SCT030
     FM311700 26008KT P6SM VCTS SCT035CB BKN120=



000
FTUS42 KMFL 310359 AAB
TAFAPF
TAF AMD
KAPF 310359Z 3104/3124 VRB05KT P6SM VCTS SCT027CB BKN040 BKN060
      TEMPO 3104/3106 VRB10G25KT 3SM TSRA SCT020CB BKN030 BKN050
     FM310600 26005KT P6SM VCSH SCT025 BKN100 BKN250
     FM311300 22006KT P6SM SCT030
     FM311700 26008KT P6SM VCTS SCT035CB BKN120=



000
FTUS42 KMFL 310328 AAA
TAFAPF
TAF AMD
KAPF 310328Z 3103/3124 26005KT P6SM VCSH FEW028 SCT040 BKN250
     FM311300 22006KT P6SM SCT030
     FM311700 26008KT P6SM VCTS SCT035CB BKN120=



000
FTUS42 KMFL 310328 AAA
TAFAPF
TAF AMD
KAPF 310328Z 3103/3124 26005KT P6SM VCSH FEW028 SCT040 BKN250
     FM311300 22006KT P6SM SCT030
     FM311700 26008KT P6SM VCTS SCT035CB BKN120=



000
FTUS42 KMFL 310324 AAA
TAFMIA
TAF AMD
KMIA 310324Z 3103/3124 VRB03KT P6SM SCT090 BKN250
     FM311400 16006KT P6SM SCT030 SCT050
     FM311600 16008KT P6SM VCSH SCT030 SCT050 PROB30 3118/3124 TSRA
      BKN035CB=



000
FTUS42 KMFL 310324 AAA
TAFMIA
TAF AMD
KMIA 310324Z 3103/3124 VRB03KT P6SM SCT090 BKN250
     FM311400 16006KT P6SM SCT030 SCT050
     FM311600 16008KT P6SM VCSH SCT030 SCT050 PROB30 3118/3124 TSRA
      BKN035CB=



000
FTUS42 KMFL 310323 AAA
TAFFLL
TAF AMD
KFLL 310323Z 3103/3124 VRB04KT P6SM FEW040 BKN250
     FM311300 16008KT P6SM SCT030
     FM311600 15010KT P6SM VCSH SCT030 SCT050 PROB30 3118/3124 TSRA
      BKN035CB=



000
FTUS42 KMFL 310323 AAA
TAFFLL
TAF AMD
KFLL 310323Z 3103/3124 VRB04KT P6SM FEW040 BKN250
     FM311300 16008KT P6SM SCT030
     FM311600 15010KT P6SM VCSH SCT030 SCT050 PROB30 3118/3124 TSRA
      BKN035CB=



000
FTUS42 KMFL 310321 AAA
TAFPBI
TAF AMD
KPBI 310321Z 3103/3124 VRB03KT P6SM FEW050 SCT150 BKN250
     FM311400 16008KT P6SM SCT030
     FM311600 19005KT P6SM VCSH SCT030 SCT050 PROB30 3118/3124 TSRA
      BKN035CB=



000
FTUS42 KMFL 310321 AAA
TAFPBI
TAF AMD
KPBI 310321Z 3103/3124 VRB03KT P6SM FEW050 SCT150 BKN250
     FM311400 16008KT P6SM SCT030
     FM311600 19005KT P6SM VCSH SCT030 SCT050 PROB30 3118/3124 TSRA
      BKN035CB=



000
FTUS42 KMFL 302345
TAFFLL
TAF
KFLL 302345Z 3100/3124 VRB05KT P6SM SCT100 BKN250
     FM310300 VRB03KT P6SM SCT250
     FM311300 16008KT P6SM SCT030
     FM311600 15010KT P6SM VCSH SCT030 SCT050 PROB30 3118/3124 TSRA
      BKN035CB=



000
FTUS42 KMFL 302345
TAFPBI
TAF
KPBI 302345Z 3100/3124 VRB04KT P6SM VCTS SCT025CB BKN035
     FM310300 VRB03KT P6SM SCT250
     FM311400 16008KT P6SM SCT030
     FM311600 19005KT P6SM VCSH SCT030 SCT050 PROB30 3118/3124 TSRA
      BKN035CB=



000
FTUS42 KMFL 302345
TAFMIA
TAF
KMIA 302345Z 3100/3124 VRB04KT P6SM VCSH SCT035 BKN050 BKN100
     FM310300 VRB03KT P6SM SCT250
     FM311400 16006KT P6SM SCT030 SCT050
     FM311600 16008KT P6SM VCSH SCT030 SCT050 PROB30 3118/3124 TSRA
      BKN035CB=



000
FTUS42 KMFL 302345
TAFAPF
TAF
KAPF 302345Z 3100/3124 26008KT P6SM FEW035 SCT250
     FM310200 VRB03KT P6SM SKC
     FM311300 22006KT P6SM SCT030
     FM311700 26008KT P6SM VCTS SCT035CB BKN120=



000
FTUS42 KMFL 302345
TAFAPF
TAF
KAPF 302345Z 3100/3124 26008KT P6SM FEW035 SCT250
     FM310200 VRB03KT P6SM SKC
     FM311300 22006KT P6SM SCT030
     FM311700 26008KT P6SM VCTS SCT035CB BKN120=



000
FTUS42 KMFL 302345
TAFMIA
TAF
KMIA 302345Z 3100/3124 VRB04KT P6SM VCSH SCT035 BKN050 BKN100
     FM310300 VRB03KT P6SM SCT250
     FM311400 16006KT P6SM SCT030 SCT050
     FM311600 16008KT P6SM VCSH SCT030 SCT050 PROB30 3118/3124 TSRA
      BKN035CB=



000
FTUS42 KMFL 302345
TAFPBI
TAF
KPBI 302345Z 3100/3124 VRB04KT P6SM VCTS SCT025CB BKN035
     FM310300 VRB03KT P6SM SCT250
     FM311400 16008KT P6SM SCT030
     FM311600 19005KT P6SM VCSH SCT030 SCT050 PROB30 3118/3124 TSRA
      BKN035CB=



000
FTUS42 KMFL 302345
TAFFLL
TAF
KFLL 302345Z 3100/3124 VRB05KT P6SM SCT100 BKN250
     FM310300 VRB03KT P6SM SCT250
     FM311300 16008KT P6SM SCT030
     FM311600 15010KT P6SM VCSH SCT030 SCT050 PROB30 3118/3124 TSRA
      BKN035CB=



000
FTUS42 KMFL 301724
TAFFLL
TAF
KFLL 301724Z 3018/3118 16007KT P6SM VCSH SCT030 SCT050
     FM301900 16009KT P6SM VCTS SCT030CB BKN060 BKN250
     FM302300 20006KT P6SM SCT030 BKN100 BKN250
     FM310400 00000KT P6SM SKC
     FM311300 20003KT P6SM SCT030
     FM311600 17006KT P6SM VCSH SCT030 SCT050=



000
FTUS42 KMFL 301724
TAFMIA
TAF
KMIA 301724Z 3018/3118 17007KT P6SM VCSH SCT030 BKN060
     FM301900 16008KT P6SM VCTS SCT030CB BKN060 BKN250
     FM302300 19006KT P6SM SCT030 BKN100 BKN250
     FM310500 00000KT P6SM SKC
     FM311300 21003KT P6SM SCT030 SCT050
     FM311600 19005KT P6SM VCSH SCT030 SCT050=



000
FTUS42 KMFL 301724
TAFAPF
TAF
KAPF 301724Z 3018/3118 26008KT P6SM VCSH SCT030 BKN060 BKN200
     FM310300 00000KT P6SM SKC
     FM311300 31003KT P6SM SCT030=



000
FTUS42 KMFL 301724
TAFMIA
TAF
KMIA 301724Z 3018/3118 17007KT P6SM VCSH SCT030 BKN060
     FM301900 16008KT P6SM VCTS SCT030CB BKN060 BKN250
     FM302300 19006KT P6SM SCT030 BKN100 BKN250
     FM310500 00000KT P6SM SKC
     FM311300 21003KT P6SM SCT030 SCT050
     FM311600 19005KT P6SM VCSH SCT030 SCT050=



000
FTUS42 KMFL 301724
TAFAPF
TAF
KAPF 301724Z 3018/3118 26008KT P6SM VCSH SCT030 BKN060 BKN200
     FM310300 00000KT P6SM SKC
     FM311300 31003KT P6SM SCT030=



000
FTUS42 KMFL 301724
TAFPBI
TAF
KPBI 301724Z 3018/3118 20007KT P6SM VCSH SCT030 SCT050
     FM301900 16009KT P6SM VCTS SCT030CB BKN060
     FM302300 20006KT P6SM SCT030 BKN100 BKN250
     FM310500 00000KT P6SM SKC
     FM311300 21004KT P6SM SCT030
     FM311600 19005KT P6SM VCSH SCT030 SCT050=



000
FTUS42 KMFL 301724
TAFFLL
TAF
KFLL 301724Z 3018/3118 16007KT P6SM VCSH SCT030 SCT050
     FM301900 16009KT P6SM VCTS SCT030CB BKN060 BKN250
     FM302300 20006KT P6SM SCT030 BKN100 BKN250
     FM310400 00000KT P6SM SKC
     FM311300 20003KT P6SM SCT030
     FM311600 17006KT P6SM VCSH SCT030 SCT050=



000
FTUS42 KMFL 301724
TAFPBI
TAF
KPBI 301724Z 3018/3118 20007KT P6SM VCSH SCT030 SCT050
     FM301900 16009KT P6SM VCTS SCT030CB BKN060
     FM302300 20006KT P6SM SCT030 BKN100 BKN250
     FM310500 00000KT P6SM SKC
     FM311300 21004KT P6SM SCT030
     FM311600 19005KT P6SM VCSH SCT030 SCT050=



000
FTUS42 KMFL 301456 AAA
TAFPBI
TAF AMD
KPBI 301456Z 3015/3112 25006KT P6SM SCT030 SCT060 BKN250
     FM301600 25007KT P6SM VCSH SCT030 SCT060 BKN250
     FM301800 16009KT P6SM VCTS SCT030CB BKN060
     FM302300 20007KT P6SM SCT030 BKN100 BKN250
     FM310500 00000KT P6SM SKC=



000
FTUS42 KMFL 301456 AAA
TAFAPF
TAF AMD
KAPF 301456Z 3015/3112 26007KT P6SM VCSH SCT030 BKN060 BKN200
     FM301700 26008KT P6SM VCTS SCT030CB BKN060 BKN200
     FM302200 28005KT P6SM SCT030 BKN100 BKN250
     FM310300 00000KT P6SM SKC=



000
FTUS42 KMFL 301456 AAA
TAFPBI
TAF AMD
KPBI 301456Z 3015/3112 25006KT P6SM SCT030 SCT060 BKN250
     FM301600 25007KT P6SM VCSH SCT030 SCT060 BKN250
     FM301800 16009KT P6SM VCTS SCT030CB BKN060
     FM302300 20007KT P6SM SCT030 BKN100 BKN250
     FM310500 00000KT P6SM SKC=



000
FTUS42 KMFL 301456 AAB
TAFMIA
TAF AMD
KMIA 301456Z 3015/3112 24006KT P6SM SCT040 BKN200
     FM301600 24006KT P6SM VCSH SCT025 SCT070 BKN200
     FM301800 16008KT P6SM VCTS SCT030CB BKN060 BKN250
     FM302300 19006KT P6SM SCT030 BKN100 BKN250
     FM310500 00000KT P6SM SKC=



000
FTUS42 KMFL 301456 AAB
TAFFLL
TAF AMD
KFLL 301456Z 3015/3112 22009KT P6SM VCSH SCT030 SCT060 BKN150
     FM301700 16009KT P6SM VCTS SCT030CB BKN060 BKN250
     FM302300 21006KT P6SM SCT030 BKN100 BKN250
     FM310400 00000KT P6SM SKC=



000
FTUS42 KMFL 301456 AAB
TAFFLL
TAF AMD
KFLL 301456Z 3015/3112 22009KT P6SM VCSH SCT030 SCT060 BKN150
     FM301700 16009KT P6SM VCTS SCT030CB BKN060 BKN250
     FM302300 21006KT P6SM SCT030 BKN100 BKN250
     FM310400 00000KT P6SM SKC=



000
FTUS42 KMFL 301456 AAA
TAFAPF
TAF AMD
KAPF 301456Z 3015/3112 26007KT P6SM VCSH SCT030 BKN060 BKN200
     FM301700 26008KT P6SM VCTS SCT030CB BKN060 BKN200
     FM302200 28005KT P6SM SCT030 BKN100 BKN250
     FM310300 00000KT P6SM SKC=



000
FTUS42 KMFL 301456 AAB
TAFMIA
TAF AMD
KMIA 301456Z 3015/3112 24006KT P6SM SCT040 BKN200
     FM301600 24006KT P6SM VCSH SCT025 SCT070 BKN200
     FM301800 16008KT P6SM VCTS SCT030CB BKN060 BKN250
     FM302300 19006KT P6SM SCT030 BKN100 BKN250
     FM310500 00000KT P6SM SKC=



000
FTUS42 KMFL 301410 AAA
TAFFLL
TAF AMD
KFLL 301410Z 3014/3112 23008KT P6SM VCSH SCT030 SCT060 BKN250
     FM301700 16009KT P6SM VCTS SCT030CB BKN060 BKN250
     FM310000 21006KT P6SM SCT030 BKN100 BKN250
     FM310400 00000KT P6SM SKC=



000
FTUS42 KMFL 301410 AAA
TAFFLL
TAF AMD
KFLL 301410Z 3014/3112 23008KT P6SM VCSH SCT030 SCT060 BKN250
     FM301700 16009KT P6SM VCTS SCT030CB BKN060 BKN250
     FM310000 21006KT P6SM SCT030 BKN100 BKN250
     FM310400 00000KT P6SM SKC=



000
FTUS42 KMFL 301308 AAA
TAFMIA
TAF AMD
KMIA 301308Z 3013/3112 24007KT P6SM VCSH SCT030 SCT060 BKN250
     FM301700 16008KT P6SM VCTS SCT030CB BKN060 BKN250
     FM310000 19006KT P6SM SCT030 BKN100 BKN250
     FM310500 00000KT P6SM SKC=



000
FTUS42 KMFL 301308 AAA
TAFMIA
TAF AMD
KMIA 301308Z 3013/3112 24007KT P6SM VCSH SCT030 SCT060 BKN250
     FM301700 16008KT P6SM VCTS SCT030CB BKN060 BKN250
     FM310000 19006KT P6SM SCT030 BKN100 BKN250
     FM310500 00000KT P6SM SKC=



000
FTUS42 KMFL 301146
TAFPBI
TAF
KPBI 301146Z 3012/3112 25005KT P6SM FEW080 SCT250
     FM301500 25005KT P6SM VCSH SCT030 SCT060 BKN250
     FM301700 16009KT P6SM VCTS SCT030CB BKN060
     FM310000 20007KT P6SM SCT030 BKN100 BKN250
     FM310500 00000KT P6SM SKC=



000
FTUS42 KMFL 301146
TAFAPF
TAF
KAPF 301146Z 3012/3112 26004KT P6SM VCSH SCT025 BKN060 BKN200
     FM301500 26008KT P6SM VCTS SCT030CB BKN060 BKN200
     FM302300 28005KT P6SM SCT030 BKN100 BKN250
     FM310300 00000KT P6SM SKC=



000
FTUS42 KMFL 301146
TAFMIA
TAF
KMIA 301146Z 3012/3112 21004KT P6SM FEW050 SCT250
     FM301500 24004KT P6SM VCSH SCT030 SCT060 BKN250
     FM301700 16008KT P6SM VCTS SCT030CB BKN060 BKN250
     FM310000 19006KT P6SM SCT030 BKN100 BKN250
     FM310500 00000KT P6SM SKC=



000
FTUS42 KMFL 301146
TAFFLL
TAF
KFLL 301146Z 3012/3112 23004KT P6SM FEW050 SCT250
     FM301500 25006KT P6SM VCSH SCT030 SCT060 BKN250
     FM301700 16009KT P6SM VCTS SCT030CB BKN060 BKN250
     FM310000 21006KT P6SM SCT030 BKN100 BKN250
     FM310400 00000KT P6SM SKC=



000
FTUS42 KMFL 301146
TAFFLL
TAF
KFLL 301146Z 3012/3112 23004KT P6SM FEW050 SCT250
     FM301500 25006KT P6SM VCSH SCT030 SCT060 BKN250
     FM301700 16009KT P6SM VCTS SCT030CB BKN060 BKN250
     FM310000 21006KT P6SM SCT030 BKN100 BKN250
     FM310400 00000KT P6SM SKC=



000
FTUS42 KMFL 301146
TAFAPF
TAF
KAPF 301146Z 3012/3112 26004KT P6SM VCSH SCT025 BKN060 BKN200
     FM301500 26008KT P6SM VCTS SCT030CB BKN060 BKN200
     FM302300 28005KT P6SM SCT030 BKN100 BKN250
     FM310300 00000KT P6SM SKC=



000
FTUS42 KMFL 301146
TAFMIA
TAF
KMIA 301146Z 3012/3112 21004KT P6SM FEW050 SCT250
     FM301500 24004KT P6SM VCSH SCT030 SCT060 BKN250
     FM301700 16008KT P6SM VCTS SCT030CB BKN060 BKN250
     FM310000 19006KT P6SM SCT030 BKN100 BKN250
     FM310500 00000KT P6SM SKC=



000
FTUS42 KMFL 301146
TAFPBI
TAF
KPBI 301146Z 3012/3112 25005KT P6SM FEW080 SCT250
     FM301500 25005KT P6SM VCSH SCT030 SCT060 BKN250
     FM301700 16009KT P6SM VCTS SCT030CB BKN060
     FM310000 20007KT P6SM SCT030 BKN100 BKN250
     FM310500 00000KT P6SM SKC=



000
FTUS42 KMFL 300926 AAA
TAFAPF
TAF AMD
KAPF 300926Z 3009/3106 28004KT P6SM VCSH FEW027 SCT050 BKN250
     FM301200 26008KT P6SM VCTS SCT025CB BKN060 BKN200
     FM301800 26008KT P6SM VCSH SCT030 BKN060 BKN200=



000
FTUS42 KMFL 300926 AAA
TAFAPF
TAF AMD
KAPF 300926Z 3009/3106 28004KT P6SM VCSH FEW027 SCT050 BKN250
     FM301200 26008KT P6SM VCTS SCT025CB BKN060 BKN200
     FM301800 26008KT P6SM VCSH SCT030 BKN060 BKN200=



000
FTUS42 KMFL 300923 AAA
TAFMIA
TAF AMD
KMIA 300923Z 3009/3106 VRB04KT P6SM FEW080 SCT250
     FM301400 24004KT P6SM VCSH SCT030 SCT060 BKN250
     FM301700 16008KT P6SM VCTS SCT030CB BKN060 BKN250
     FM310000 19006KT P6SM SCT030 BKN100 BKN250=



000
FTUS42 KMFL 300923 AAA
TAFMIA
TAF AMD
KMIA 300923Z 3009/3106 VRB04KT P6SM FEW080 SCT250
     FM301400 24004KT P6SM VCSH SCT030 SCT060 BKN250
     FM301700 16008KT P6SM VCTS SCT030CB BKN060 BKN250
     FM310000 19006KT P6SM SCT030 BKN100 BKN250=



000
FTUS42 KMFL 300921 AAA
TAFFLL
TAF AMD
KFLL 300921Z 3009/3106 23005KT P6SM FEW027 SCT250
     FM301400 25006KT P6SM VCSH SCT030 SCT060 BKN250
     FM301700 16009KT P6SM VCTS SCT030CB BKN060 BKN250
     FM310000 21006KT P6SM SCT030 BKN100 BKN250=



000
FTUS42 KMFL 300921 AAA
TAFFLL
TAF AMD
KFLL 300921Z 3009/3106 23005KT P6SM FEW027 SCT250
     FM301400 25006KT P6SM VCSH SCT030 SCT060 BKN250
     FM301700 16009KT P6SM VCTS SCT030CB BKN060 BKN250
     FM310000 21006KT P6SM SCT030 BKN100 BKN250=



000
FTUS42 KMFL 300918 AAA
TAFPBI
TAF AMD
KPBI 300918Z 3009/3106 25005KT P6SM FEW030 SCT250
     FM301400 25005KT P6SM VCSH SCT030 SCT060 BKN250
     FM301700 16009KT P6SM VCTS SCT030CB BKN060
     FM310000 20007KT P6SM SCT030 BKN100 BKN250=



000
FTUS42 KMFL 300918 AAA
TAFPBI
TAF AMD
KPBI 300918Z 3009/3106 25005KT P6SM FEW030 SCT250
     FM301400 25005KT P6SM VCSH SCT030 SCT060 BKN250
     FM301700 16009KT P6SM VCTS SCT030CB BKN060
     FM310000 20007KT P6SM SCT030 BKN100 BKN250=



000
FTUS42 KMFL 300533
TAFPBI
TAF
KPBI 300533Z 3006/3106 VRB03KT P6SM FEW030 SCT140 BKN250
     FM301400 25005KT P6SM VCSH SCT030 SCT060 BKN250
     FM301700 16009KT P6SM VCTS SCT030CB BKN060
     FM310000 20007KT P6SM SCT030 BKN100 BKN250=



000
FTUS42 KMFL 300533
TAFMIA
TAF
KMIA 300533Z 3006/3106 20004KT P6SM FEW030 SCT080 BKN250
     FM301400 24004KT P6SM VCSH SCT030 SCT060 BKN250
     FM301700 16008KT P6SM VCTS SCT030CB BKN060 BKN250
     FM310000 19006KT P6SM SCT030 BKN100 BKN250=



000
FTUS42 KMFL 300533
TAFPBI
TAF
KPBI 300533Z 3006/3106 VRB03KT P6SM FEW030 SCT140 BKN250
     FM301400 25005KT P6SM VCSH SCT030 SCT060 BKN250
     FM301700 16009KT P6SM VCTS SCT030CB BKN060
     FM310000 20007KT P6SM SCT030 BKN100 BKN250=



000
FTUS42 KMFL 300533
TAFFLL
TAF
KFLL 300533Z 3006/3106 VRB03KT P6SM FEW027 SCT050 BKN250
     FM301400 25006KT P6SM VCSH SCT030 SCT060 BKN250
     FM301700 16009KT P6SM VCTS SCT030CB BKN060 BKN250
     FM310000 21006KT P6SM SCT030 BKN100 BKN250=



000
FTUS42 KMFL 300533
TAFAPF
TAF
KAPF 300533Z 3006/3106 26005KT P6SM VCSH FEW025 SCT080 BKN250
     FM301200 26008KT P6SM VCTS SCT025CB BKN060 BKN200
     FM301800 26008KT P6SM VCSH SCT030 BKN060 BKN200=



000
FTUS42 KMFL 300533
TAFFLL
TAF
KFLL 300533Z 3006/3106 VRB03KT P6SM FEW027 SCT050 BKN250
     FM301400 25006KT P6SM VCSH SCT030 SCT060 BKN250
     FM301700 16009KT P6SM VCTS SCT030CB BKN060 BKN250
     FM310000 21006KT P6SM SCT030 BKN100 BKN250=



000
FTUS42 KMFL 300533
TAFAPF
TAF
KAPF 300533Z 3006/3106 26005KT P6SM VCSH FEW025 SCT080 BKN250
     FM301200 26008KT P6SM VCTS SCT025CB BKN060 BKN200
     FM301800 26008KT P6SM VCSH SCT030 BKN060 BKN200=



000
FTUS42 KMFL 300533
TAFMIA
TAF
KMIA 300533Z 3006/3106 20004KT P6SM FEW030 SCT080 BKN250
     FM301400 24004KT P6SM VCSH SCT030 SCT060 BKN250
     FM301700 16008KT P6SM VCTS SCT030CB BKN060 BKN250
     FM310000 19006KT P6SM SCT030 BKN100 BKN250=



000
FTUS42 KMFL 300324 AAA
TAFAPF
TAF AMD
KAPF 300324Z 3003/3024 26005KT P6SM VCSH FEW025 BKN250
     FM301300 26008KT P6SM VCSH SCT035
     FM301900 27010KT P6SM SCT030 BKN120=



000
FTUS42 KMFL 300324 AAA
TAFAPF
TAF AMD
KAPF 300324Z 3003/3024 26005KT P6SM VCSH FEW025 BKN250
     FM301300 26008KT P6SM VCSH SCT035
     FM301900 27010KT P6SM SCT030 BKN120=



000
FTUS42 KMFL 300322 AAA
TAFMIA
TAF AMD
KMIA 300322Z 3003/3024 VRB03KT P6SM FEW030 SCT080 BKN250
     FM301300 24006KT P6SM SCT035
     FM301600 16008KT P6SM VCTS SCT030CB BKN060 PROB30 3019/3024
      TSRA BKN035CB=



000
FTUS42 KMFL 300322 AAA
TAFMIA
TAF AMD
KMIA 300322Z 3003/3024 VRB03KT P6SM FEW030 SCT080 BKN250
     FM301300 24006KT P6SM SCT035
     FM301600 16008KT P6SM VCTS SCT030CB BKN060 PROB30 3019/3024
      TSRA BKN035CB=



000
FTUS42 KMFL 300321 AAA
TAFFLL
TAF AMD
KFLL 300321Z 3003/3024 VRB03KT P6SM FEW050 BKN250
     FM301300 25006KT P6SM SCT035
     FM301600 16010KT P6SM VCTS SCT030CB BKN060 PROB30 3019/3024
      TSRA BKN035CB=



000
FTUS42 KMFL 300321 AAA
TAFFLL
TAF AMD
KFLL 300321Z 3003/3024 VRB03KT P6SM FEW050 BKN250
     FM301300 25006KT P6SM SCT035
     FM301600 16010KT P6SM VCTS SCT030CB BKN060 PROB30 3019/3024
      TSRA BKN035CB=



000
FTUS42 KMFL 300318 AAA
TAFPBI
TAF AMD
KPBI 300318Z 3003/3024 20007KT P6SM FEW030 SCT140 BKN250
     FM301300 25006KT P6SM SCT035
     FM301600 15010KT P6SM VCTS SCT030CB BKN060 PROB30 3019/3024
      TSRA BKN035CB=



000
FTUS42 KMFL 300318 AAA
TAFPBI
TAF AMD
KPBI 300318Z 3003/3024 20007KT P6SM FEW030 SCT140 BKN250
     FM301300 25006KT P6SM SCT035
     FM301600 15010KT P6SM VCTS SCT030CB BKN060 PROB30 3019/3024
      TSRA BKN035CB=



000
FTUS42 KMFL 292333
TAFFLL
TAF
KFLL 292333Z 3000/3024 VRB03KT P6SM VCTS SCT040CB BKN250
     FM300100 VRB03KT P6SM BKN250
     FM301300 25006KT P6SM SCT035
     FM301600 16010KT P6SM VCTS SCT030CB BKN060 PROB30 3019/3024
      TSRA BKN035CB=



000
FTUS42 KMFL 292333
TAFPBI
TAF
KPBI 292333Z 3000/3024 VRB03KT P6SM SCT025 BKN050
     FM300100 VRB04KT P6SM BKN250
     FM301300 25006KT P6SM SCT035
     FM301600 15010KT P6SM VCTS SCT030CB BKN060 PROB30 3019/3024
      TSRA BKN035CB=



000
FTUS42 KMFL 292333
TAFMIA
TAF
KMIA 292333Z 3000/3024 VRB03KT P6SM VCTS SCT035CB SCT050 BKN080
     FM300100 VRB03KT P6SM BKN250
     FM301300 24006KT P6SM SCT035
     FM301600 16008KT P6SM VCTS SCT030CB BKN060 PROB30 3019/3024
      TSRA BKN035CB=



000
FTUS42 KMFL 292333
TAFAPF
TAF
KAPF 292333Z 3000/3024 28008KT P6SM SCT030 BKN250
     FM300200 VRB03KT P6SM BKN200
     FM301300 26008KT P6SM VCSH SCT035
     FM301900 27010KT P6SM SCT030 BKN120=



000
FTUS42 KMFL 292333
TAFMIA
TAF
KMIA 292333Z 3000/3024 VRB03KT P6SM VCTS SCT035CB SCT050 BKN080
     FM300100 VRB03KT P6SM BKN250
     FM301300 24006KT P6SM SCT035
     FM301600 16008KT P6SM VCTS SCT030CB BKN060 PROB30 3019/3024
      TSRA BKN035CB=



000
FTUS42 KMFL 292333
TAFAPF
TAF
KAPF 292333Z 3000/3024 28008KT P6SM SCT030 BKN250
     FM300200 VRB03KT P6SM BKN200
     FM301300 26008KT P6SM VCSH SCT035
     FM301900 27010KT P6SM SCT030 BKN120=



000
FTUS42 KMFL 292333
TAFFLL
TAF
KFLL 292333Z 3000/3024 VRB03KT P6SM VCTS SCT040CB BKN250
     FM300100 VRB03KT P6SM BKN250
     FM301300 25006KT P6SM SCT035
     FM301600 16010KT P6SM VCTS SCT030CB BKN060 PROB30 3019/3024
      TSRA BKN035CB=



000
FTUS42 KMFL 292333
TAFPBI
TAF
KPBI 292333Z 3000/3024 VRB03KT P6SM SCT025 BKN050
     FM300100 VRB04KT P6SM BKN250
     FM301300 25006KT P6SM SCT035
     FM301600 15010KT P6SM VCTS SCT030CB BKN060 PROB30 3019/3024
      TSRA BKN035CB=



000
FTUS42 KMFL 292153 AAA
TAFAPF
TAF AMD
KAPF 292153Z 2922/3018 28008KT P6SM BKN250
     FM300400 23004KT P6SM SKC=



000
FTUS42 KMFL 292153 AAA
TAFFLL
TAF AMD
KFLL 292153Z 2922/3018 VRB06KT P6SM VCTS SCT040CB BKN250
     FM300100 22005KT P6SM BKN250=



000
FTUS42 KMFL 292153 AAA
TAFMIA
TAF AMD
KMIA 292153Z 2922/3018 VRB05KT P6SM VCTS SCT030CB BKN250
     FM300000 23004KT P6SM SCT250=



000
FTUS42 KMFL 292153 AAA
TAFPBI
TAF AMD
KPBI 292153Z 2922/3018 VRB03KT P6SM VCTS SCT030CB BKN250
     FM300100 23005KT P6SM BKN250=



000
FTUS42 KMFL 292153 AAA
TAFAPF
TAF AMD
KAPF 292153Z 2922/3018 28008KT P6SM BKN250
     FM300400 23004KT P6SM SKC=



000
FTUS42 KMFL 292153 AAA
TAFPBI
TAF AMD
KPBI 292153Z 2922/3018 VRB03KT P6SM VCTS SCT030CB BKN250
     FM300100 23005KT P6SM BKN250=



000
FTUS42 KMFL 292153 AAA
TAFFLL
TAF AMD
KFLL 292153Z 2922/3018 VRB06KT P6SM VCTS SCT040CB BKN250
     FM300100 22005KT P6SM BKN250=



000
FTUS42 KMFL 292153 AAA
TAFMIA
TAF AMD
KMIA 292153Z 2922/3018 VRB05KT P6SM VCTS SCT030CB BKN250
     FM300000 23004KT P6SM SCT250=



000
FTUS42 KMFL 291728
TAFPBI
TAF
KPBI 291728Z 2918/3018 25009KT P6SM VCTS SCT030CB BKN250
     FM300100 23005KT P6SM BKN250=



000
FTUS42 KMFL 291728
TAFFLL
TAF
KFLL 291728Z 2918/3018 24007KT P6SM VCTS SCT040CB BKN250
     FM300100 22005KT P6SM BKN250=



000
FTUS42 KMFL 291728
TAFMIA
TAF
KMIA 291728Z 2918/3018 25006KT P6SM VCTS SCT030CB BKN250
     FM300000 23004KT P6SM SCT250=



000
FTUS42 KMFL 291728
TAFAPF
TAF
KAPF 291728Z 2918/3018 26011KT P6SM VCTS SCT030CB BKN250
     FM292200 25010KT P6SM BKN250
     FM300400 23004KT P6SM SKC=



000
FTUS42 KMFL 291728
TAFMIA
TAF
KMIA 291728Z 2918/3018 25006KT P6SM VCTS SCT030CB BKN250
     FM300000 23004KT P6SM SCT250=



000
FTUS42 KMFL 291728
TAFAPF
TAF
KAPF 291728Z 2918/3018 26011KT P6SM VCTS SCT030CB BKN250
     FM292200 25010KT P6SM BKN250
     FM300400 23004KT P6SM SKC=



000
FTUS42 KMFL 291728
TAFFLL
TAF
KFLL 291728Z 2918/3018 24007KT P6SM VCTS SCT040CB BKN250
     FM300100 22005KT P6SM BKN250=



000
FTUS42 KMFL 291728
TAFPBI
TAF
KPBI 291728Z 2918/3018 25009KT P6SM VCTS SCT030CB BKN250
     FM300100 23005KT P6SM BKN250=



000
FTUS42 KMFL 291530 AAB
TAFMIA
TAF AMD
KMIA 291530Z 2916/3012 25006KT P6SM VCTS SCT030CB BKN250
     FM300000 23004KT P6SM BKN250=



000
FTUS42 KMFL 291530 AAB
TAFMIA
TAF AMD
KMIA 291530Z 2916/3012 25006KT P6SM VCTS SCT030CB BKN250
     FM300000 23004KT P6SM BKN250=



000
FTUS42 KMFL 291436 AAA
TAFFLL
TAF AMD
KFLL 291436Z 2915/3012 24007KT P6SM VCSH SCT030 SCT250
     FM291800 17009KT P6SM VCTS SCT030CB SCT060 BKN250
     FM300000 22005KT P6SM BKN250=



000
FTUS42 KMFL 291436 AAA
TAFMIA
TAF AMD
KMIA 291436Z 2915/3012 25006KT P6SM VCSH SCT030 SCT250
     FM291900 17008KT P6SM VCTS SCT030CB SCT060 BKN250
     FM300000 23004KT P6SM BKN250=



000
FTUS42 KMFL 291436 AAA
TAFFLL
TAF AMD
KFLL 291436Z 2915/3012 24007KT P6SM VCSH SCT030 SCT250
     FM291800 17009KT P6SM VCTS SCT030CB SCT060 BKN250
     FM300000 22005KT P6SM BKN250=



000
FTUS42 KMFL 291436 AAA
TAFPBI
TAF AMD
KPBI 291436Z 2915/3012 25008KT P6SM VCSH BKN030 BKN250
     FM291700 21010KT P6SM VCTS SCT025CB BKN050 BKN250
     FM300000 23005KT P6SM BKN250=



000
FTUS42 KMFL 291436 AAA
TAFAPF
TAF AMD
KAPF 291436Z 2915/3012 27009KT P6SM VCSH SCT030 SCT060
     FM291700 27011KT P6SM VCTS SCT030CB SCT060 BKN250
     FM292200 25005KT P6SM BKN250=



000
FTUS42 KMFL 291436 AAA
TAFPBI
TAF AMD
KPBI 291436Z 2915/3012 25008KT P6SM VCSH BKN030 BKN250
     FM291700 21010KT P6SM VCTS SCT025CB BKN050 BKN250
     FM300000 23005KT P6SM BKN250=



000
FTUS42 KMFL 291127
TAFAPF
TAF
KAPF 291127Z 2912/3012 27009KT P6SM VCSH SCT030 SCT060
     FM291700 27011KT P6SM VCTS SCT030CB SCT060 BKN250
     FM292200 25005KT P6SM BKN250=



000
FTUS42 KMFL 291127
TAFAPF
TAF
KAPF 291127Z 2912/3012 27009KT P6SM VCSH SCT030 SCT060
     FM291700 27011KT P6SM VCTS SCT030CB SCT060 BKN250
     FM292200 25005KT P6SM BKN250=



000
FTUS42 KMFL 291123
TAFPBI
TAF
KPBI 291123Z 2912/3012 25007KT P6SM FEW040 SCT130 SCT250
     FM291500 25008KT P6SM VCSH SCT030 SCT060 BKN250
     FM291700 21010KT P6SM VCTS SCT025CB BKN050 BKN250
     FM300000 23005KT P6SM BKN250=



000
FTUS42 KMFL 291123
TAFFLL
TAF
KFLL 291123Z 2912/3012 VRB03KT P6SM FEW027 SCT200
     FM291500 24005KT P6SM VCSH SCT030 SCT250
     FM291800 17009KT P6SM VCTS SCT030CB SCT060 BKN250
     FM300000 22005KT P6SM BKN250=



000
FTUS42 KMFL 291123
TAFMIA
TAF
KMIA 291123Z 2912/3012 24005KT P6SM FEW050 SCT250
     FM291500 25006KT P6SM VCSH SCT030 SCT250
     FM291900 17008KT P6SM VCTS SCT030CB SCT060 BKN250
     FM300000 23004KT P6SM BKN250=



000
FTUS42 KMFL 291123
TAFPBI
TAF
KPBI 291123Z 2912/3012 25007KT P6SM FEW040 SCT130 SCT250
     FM291500 25008KT P6SM VCSH SCT030 SCT060 BKN250
     FM291700 21010KT P6SM VCTS SCT025CB BKN050 BKN250
     FM300000 23005KT P6SM BKN250=



000
FTUS42 KMFL 291123
TAFMIA
TAF
KMIA 291123Z 2912/3012 24005KT P6SM FEW050 SCT250
     FM291500 25006KT P6SM VCSH SCT030 SCT250
     FM291900 17008KT P6SM VCTS SCT030CB SCT060 BKN250
     FM300000 23004KT P6SM BKN250=



000
FTUS42 KMFL 291123
TAFFLL
TAF
KFLL 291123Z 2912/3012 VRB03KT P6SM FEW027 SCT200
     FM291500 24005KT P6SM VCSH SCT030 SCT250
     FM291800 17009KT P6SM VCTS SCT030CB SCT060 BKN250
     FM300000 22005KT P6SM BKN250=



000
FTUS42 KMFL 291123
TAFAPF
TAF
KAPF 291123Z 2912/3012 25006KT P6SM SCT027 SCT250
     FM291500 27009KT P6SM VCSH SCT030 SCT060
     FM291700 27011KT P6SM VCTS SCT030CB SCT060 BKN250
     FM292200 25005KT P6SM BKN250=



000
FTUS42 KMFL 291123
TAFAPF
TAF
KAPF 291123Z 2912/3012 25006KT P6SM SCT027 SCT250
     FM291500 27009KT P6SM VCSH SCT030 SCT060
     FM291700 27011KT P6SM VCTS SCT030CB SCT060 BKN250
     FM292200 25005KT P6SM BKN250=



000
FTUS42 KMFL 290917 AAA
TAFAPF
TAF AMD
KAPF 290917Z 2909/3006 25006KT P6SM SCT027 SCT250
     FM291500 27009KT P6SM VCSH SCT030 SCT060
     FM291800 27011KT P6SM VCTS SCT030CB SCT060 BKN250=



000
FTUS42 KMFL 290917 AAA
TAFAPF
TAF AMD
KAPF 290917Z 2909/3006 25006KT P6SM SCT027 SCT250
     FM291500 27009KT P6SM VCSH SCT030 SCT060
     FM291800 27011KT P6SM VCTS SCT030CB SCT060 BKN250=



000
FTUS42 KMFL 290914 AAA
TAFMIA
TAF AMD
KMIA 290914Z 2909/3006 24005KT P6SM FEW050 SCT250
     FM291500 25006KT P6SM VCSH SCT030 SCT250
     FM291900 17008KT P6SM VCTS SCT030CB SCT060 BKN250=



000
FTUS42 KMFL 290914 AAA
TAFMIA
TAF AMD
KMIA 290914Z 2909/3006 24005KT P6SM FEW050 SCT250
     FM291500 25006KT P6SM VCSH SCT030 SCT250
     FM291900 17008KT P6SM VCTS SCT030CB SCT060 BKN250=



000
FTUS42 KMFL 290912 AAA
TAFFLL
TAF AMD
KFLL 290912Z 2909/3006 VRB03KT P6SM FEW027 SCT200
     FM291500 24005KT P6SM VCSH SCT030 SCT250
     FM291800 17009KT P6SM VCTS SCT030CB SCT060 BKN250=



000
FTUS42 KMFL 290912 AAA
TAFFLL
TAF AMD
KFLL 290912Z 2909/3006 VRB03KT P6SM FEW027 SCT200
     FM291500 24005KT P6SM VCSH SCT030 SCT250
     FM291800 17009KT P6SM VCTS SCT030CB SCT060 BKN250=



000
FTUS42 KMFL 290910 AAA
TAFPBI
TAF AMD
KPBI 290910Z 2909/3006 25007KT P6SM FEW040 SCT130 SCT250
     FM291500 25008KT P6SM VCSH SCT030 SCT060 BKN250
     FM291800 21010KT P6SM VCTS SCT025CB BKN050 BKN250=



000
FTUS42 KMFL 290910 AAA
TAFPBI
TAF AMD
KPBI 290910Z 2909/3006 25007KT P6SM FEW040 SCT130 SCT250
     FM291500 25008KT P6SM VCSH SCT030 SCT060 BKN250
     FM291800 21010KT P6SM VCTS SCT025CB BKN050 BKN250=



000
FTUS42 KMFL 290532
TAFMIA
TAF
KMIA 290532Z 2906/3006 25005KT P6SM FEW030 SCT250
     FM291500 25006KT P6SM VCSH SCT030 SCT250
     FM291900 17008KT P6SM VCTS SCT030CB SCT060 BKN250=



000
FTUS42 KMFL 290532
TAFFLL
TAF
KFLL 290532Z 2906/3006 VRB03KT P6SM FEW027 SCT250
     FM291500 24005KT P6SM VCSH SCT030 SCT250
     FM291800 17009KT P6SM VCTS SCT030CB SCT060 BKN250=



000
FTUS42 KMFL 290532
TAFPBI
TAF
KPBI 290532Z 2906/3006 25007KT P6SM FEW050 BKN250
     FM291500 25008KT P6SM VCSH SCT030 SCT060 BKN250
     FM291800 21010KT P6SM VCTS SCT025CB BKN050 BKN250=



000
FTUS42 KMFL 290532
TAFAPF
TAF
KAPF 290532Z 2906/3006 27005KT P6SM FEW025 SCT250
     FM291500 27009KT P6SM VCSH SCT030 SCT060
     FM291800 27011KT P6SM VCTS SCT030CB SCT060 BKN250=



000
FTUS42 KMFL 290532
TAFFLL
TAF
KFLL 290532Z 2906/3006 VRB03KT P6SM FEW027 SCT250
     FM291500 24005KT P6SM VCSH SCT030 SCT250
     FM291800 17009KT P6SM VCTS SCT030CB SCT060 BKN250=



000
FTUS42 KMFL 290532
TAFPBI
TAF
KPBI 290532Z 2906/3006 25007KT P6SM FEW050 BKN250
     FM291500 25008KT P6SM VCSH SCT030 SCT060 BKN250
     FM291800 21010KT P6SM VCTS SCT025CB BKN050 BKN250=



000
FTUS42 KMFL 290532
TAFMIA
TAF
KMIA 290532Z 2906/3006 25005KT P6SM FEW030 SCT250
     FM291500 25006KT P6SM VCSH SCT030 SCT250
     FM291900 17008KT P6SM VCTS SCT030CB SCT060 BKN250=



000
FTUS42 KMFL 290532
TAFAPF
TAF
KAPF 290532Z 2906/3006 27005KT P6SM FEW025 SCT250
     FM291500 27009KT P6SM VCSH SCT030 SCT060
     FM291800 27011KT P6SM VCTS SCT030CB SCT060 BKN250=



000
FTUS42 KMFL 290328 AAA
TAFAPF
TAF AMD
KAPF 290328Z 2903/2924 27006KT P6SM FEW025 SCT250
     FM291300 27008KT P6SM SCT050=



000
FTUS42 KMFL 290328 AAA
TAFAPF
TAF AMD
KAPF 290328Z 2903/2924 27006KT P6SM FEW025 SCT250
     FM291300 27008KT P6SM SCT050=



000
FTUS42 KMFL 290326 AAA
TAFMIA
TAF AMD
KMIA 290326Z 2903/2924 25007KT P6SM FEW030 SCT250
     FM292100 15010KT P6SM SCT030 SCT250=



000
FTUS42 KMFL 290326 AAA
TAFMIA
TAF AMD
KMIA 290326Z 2903/2924 25007KT P6SM FEW030 SCT250
     FM292100 15010KT P6SM SCT030 SCT250=



000
FTUS42 KMFL 290321 AAA
TAFFLL
TAF AMD
KFLL 290321Z 2903/2924 VRB03KT P6SM FEW027 SCT250
     FM291900 15009KT P6SM SCT030 SCT250=



000
FTUS42 KMFL 290321 AAA
TAFFLL
TAF AMD
KFLL 290321Z 2903/2924 VRB03KT P6SM FEW027 SCT250
     FM291900 15009KT P6SM SCT030 SCT250=



000
FTUS42 KMFL 290318 AAA
TAFPBI
TAF AMD
KPBI 290318Z 2903/2924 26005KT P6SM FEW050 BKN250
     FM291800 21010KT P6SM VCTS SCT030CB BKN250=



000
FTUS42 KMFL 290318 AAA
TAFPBI
TAF AMD
KPBI 290318Z 2903/2924 26005KT P6SM FEW050 BKN250
     FM291800 21010KT P6SM VCTS SCT030CB BKN250=



000
FTUS42 KMFL 282347
TAFFLL
TAF
KFLL 282347Z 2900/2924 14012KT P6SM FEW040 SCT070 BKN250
     FM290400 26003KT P6SM FEW250
     FM291900 15009KT P6SM SCT030 SCT250=



000
FTUS42 KMFL 282347
TAFPBI
TAF
KPBI 282347Z 2900/2924 26010KT P6SM SCT050 BKN250
     FM290500 25003KT P6SM FEW250
     FM291800 21010KT P6SM VCTS SCT030CB BKN250=



000
FTUS42 KMFL 282347
TAFMIA
TAF
KMIA 282347Z 2900/2924 16012KT P6SM FEW050 SCT080 BKN300
     FM290400 25004KT P6SM SKC
     FM292100 15010KT P6SM SCT030 SCT250=



000
FTUS42 KMFL 282347
TAFAPF
TAF
KAPF 282347Z 2900/2924 27008KT P6SM SCT027
     FM290200 24004KT P6SM FEW250
     FM291300 27008KT P6SM SCT050=



000
FTUS42 KMFL 282347
TAFMIA
TAF
KMIA 282347Z 2900/2924 16012KT P6SM FEW050 SCT080 BKN300
     FM290400 25004KT P6SM SKC
     FM292100 15010KT P6SM SCT030 SCT250=



000
FTUS42 KMFL 282347
TAFFLL
TAF
KFLL 282347Z 2900/2924 14012KT P6SM FEW040 SCT070 BKN250
     FM290400 26003KT P6SM FEW250
     FM291900 15009KT P6SM SCT030 SCT250=



000
FTUS42 KMFL 282347
TAFAPF
TAF
KAPF 282347Z 2900/2924 27008KT P6SM SCT027
     FM290200 24004KT P6SM FEW250
     FM291300 27008KT P6SM SCT050=



000
FTUS42 KMFL 282347
TAFPBI
TAF
KPBI 282347Z 2900/2924 26010KT P6SM SCT050 BKN250
     FM290500 25003KT P6SM FEW250
     FM291800 21010KT P6SM VCTS SCT030CB BKN250=



000
FTUS42 KMFL 282125 AAA
TAFPBI
TAF AMD
KPBI 282125Z 2821/2918 24010KT P6SM VCSH SCT060 SCT070 BKN230
     FM290000 24005KT P6SM FEW030 SCT250
     FM290500 25003KT P6SM SKC=



000
FTUS42 KMFL 282125 AAA
TAFFLL
TAF AMD
KFLL 282125Z 2821/2918 15012KT P6SM SCT045 BKN250
     FM290000 25005KT P6SM FEW030 SCT250
     FM290400 26003KT P6SM SKC=



000
FTUS42 KMFL 282125 AAA
TAFAPF
TAF AMD
KAPF 282125Z 2821/2918 28010KT P6SM SCT050 SCT250
     FM290200 24004KT P6SM FEW250
     FM291300 27008KT P6SM SCT050=



000
FTUS42 KMFL 282125 AAA
TAFMIA
TAF AMD
KMIA 282125Z 2821/2918 VRB04KT P6SM SCT060 SCT300
     FM290000 24005KT P6SM FEW030 SCT250
     FM290400 25004KT P6SM SKC=



000
FTUS42 KMFL 282125 AAA
TAFMIA
TAF AMD
KMIA 282125Z 2821/2918 VRB04KT P6SM SCT060 SCT300
     FM290000 24005KT P6SM FEW030 SCT250
     FM290400 25004KT P6SM SKC=



000
FTUS42 KMFL 282125 AAA
TAFAPF
TAF AMD
KAPF 282125Z 2821/2918 28010KT P6SM SCT050 SCT250
     FM290200 24004KT P6SM FEW250
     FM291300 27008KT P6SM SCT050=



000
FTUS42 KMFL 282125 AAA
TAFPBI
TAF AMD
KPBI 282125Z 2821/2918 24010KT P6SM VCSH SCT060 SCT070 BKN230
     FM290000 24005KT P6SM FEW030 SCT250
     FM290500 25003KT P6SM SKC=



000
FTUS42 KMFL 282125 AAA
TAFFLL
TAF AMD
KFLL 282125Z 2821/2918 15012KT P6SM SCT045 BKN250
     FM290000 25005KT P6SM FEW030 SCT250
     FM290400 26003KT P6SM SKC=



000
FTUS42 KMFL 281720
TAFPBI
TAF
KPBI 281720Z 2818/2918 21009KT P6SM VCTS SCT035CB SCT250
     FM290000 24005KT P6SM FEW030 SCT250
     FM290500 25003KT P6SM SKC=



000
FTUS42 KMFL 281720
TAFFLL
TAF
KFLL 281720Z 2818/2918 17010KT P6SM SCT035 SCT250
     FM290000 25005KT P6SM FEW030 SCT250
     FM290400 26003KT P6SM SKC=



000
FTUS42 KMFL 281720
TAFAPF
TAF
KAPF 281720Z 2818/2918 26008KT P6SM SCT050
     FM290200 24004KT P6SM SKC
     FM291300 27008KT P6SM SCT050=



000
FTUS42 KMFL 281720
TAFMIA
TAF
KMIA 281720Z 2818/2918 VRB04KT P6SM FEW030 SCT300
     FM281900 17007KT P6SM SCT035 SCT250
     FM290000 24005KT P6SM FEW030 SCT250
     FM290400 25004KT P6SM SKC=



000
FTUS42 KMFL 281720
TAFMIA
TAF
KMIA 281720Z 2818/2918 VRB04KT P6SM FEW030 SCT300
     FM281900 17007KT P6SM SCT035 SCT250
     FM290000 24005KT P6SM FEW030 SCT250
     FM290400 25004KT P6SM SKC=



000
FTUS42 KMFL 281720
TAFPBI
TAF
KPBI 281720Z 2818/2918 21009KT P6SM VCTS SCT035CB SCT250
     FM290000 24005KT P6SM FEW030 SCT250
     FM290500 25003KT P6SM SKC=



000
FTUS42 KMFL 281720
TAFAPF
TAF
KAPF 281720Z 2818/2918 26008KT P6SM SCT050
     FM290200 24004KT P6SM SKC
     FM291300 27008KT P6SM SCT050=



000
FTUS42 KMFL 281720
TAFFLL
TAF
KFLL 281720Z 2818/2918 17010KT P6SM SCT035 SCT250
     FM290000 25005KT P6SM FEW030 SCT250
     FM290400 26003KT P6SM SKC=



000
FTUS42 KMFL 281522 AAA
TAFFLL
TAF AMD
KFLL 281522Z 2815/2912 25004KT P6SM SCT035 BKN250
     FM281800 17010KT P6SM SCT035 SCT250
     FM290000 25005KT P6SM FEW030 SCT250=



000
FTUS42 KMFL 281522 AAA
TAFMIA
TAF AMD
KMIA 281522Z 2815/2912 VRB04KT P6SM FEW030 SCT300
     FM281900 17007KT P6SM SCT035 SCT250
     FM290000 24005KT P6SM FEW030 SCT250=



000
FTUS42 KMFL 281522 AAA
TAFMIA
TAF AMD
KMIA 281522Z 2815/2912 VRB04KT P6SM FEW030 SCT300
     FM281900 17007KT P6SM SCT035 SCT250
     FM290000 24005KT P6SM FEW030 SCT250=



000
FTUS42 KMFL 281522 AAA
TAFFLL
TAF AMD
KFLL 281522Z 2815/2912 25004KT P6SM SCT035 BKN250
     FM281800 17010KT P6SM SCT035 SCT250
     FM290000 25005KT P6SM FEW030 SCT250=



000
FTUS42 KMFL 281127
TAFFLL
TAF
KFLL 281127Z 2812/2912 25004KT P6SM SCT035 BKN250
     FM281800 17010KT P6SM SCT035 SCT250
     FM290000 25005KT P6SM FEW030 SCT250=



000
FTUS42 KMFL 281127
TAFPBI
TAF
KPBI 281127Z 2812/2912 25004KT P6SM FEW040 SCT250
     FM281800 21009KT P6SM VCTS SCT035CB SCT250
     FM290000 24005KT P6SM FEW030 SCT250=



000
FTUS42 KMFL 281127
TAFAPF
TAF
KAPF 281127Z 2812/2912 25007KT P6SM VCSH SCT040
     FM281600 26008KT P6SM FEW050=



000
FTUS42 KMFL 281127
TAFMIA
TAF
KMIA 281127Z 2812/2912 23004KT P6SM FEW035 FEW050 BKN300
     FM281900 17007KT P6SM SCT035 SCT250
     FM290000 24005KT P6SM FEW030 SCT250=



000
FTUS42 KMFL 281127
TAFAPF
TAF
KAPF 281127Z 2812/2912 25007KT P6SM VCSH SCT040
     FM281600 26008KT P6SM FEW050=



000
FTUS42 KMFL 281127
TAFPBI
TAF
KPBI 281127Z 2812/2912 25004KT P6SM FEW040 SCT250
     FM281800 21009KT P6SM VCTS SCT035CB SCT250
     FM290000 24005KT P6SM FEW030 SCT250=



000
FTUS42 KMFL 281127
TAFMIA
TAF
KMIA 281127Z 2812/2912 23004KT P6SM FEW035 FEW050 BKN300
     FM281900 17007KT P6SM SCT035 SCT250
     FM290000 24005KT P6SM FEW030 SCT250=



000
FTUS42 KMFL 281127
TAFFLL
TAF
KFLL 281127Z 2812/2912 25004KT P6SM SCT035 BKN250
     FM281800 17010KT P6SM SCT035 SCT250
     FM290000 25005KT P6SM FEW030 SCT250=



    US Dept of Commerce
    National Oceanic and Atmospheric Administration
    National Weather Service
    1325 East West Highway
    Silver Spring, MD 20910
    Page Author: NWS Internet Services Team
Disclaimer
Information Quality
Credits
Glossary
Privacy Policy
Freedom of Information Act (FOIA)
About Us
Career Opportunities